sensor_id;sensor_type;location;lat;lon;timestamp;pressure;altitude;pressure_sealevel;temperature;humidity
25080;BME280;13071;48.868;9.996;2023-01-19T00:00:32;95392.56;;;-2.57;90.69
25080;BME280;13071;48.868;9.996;2023-01-19T00:02:58;95394.66;;;-2.54;90.96
25080;BME280;13071;48.868;9.996;2023-01-19T00:05:25;95392.78;;;-2.53;91.14
25080;BME280;13071;48.868;9.996;2023-01-19T00:07:51;95388.84;;;-2.61;91.16
25080;BME280;13071;48.868;9.996;2023-01-19T00:10:20;95403.19;;;-2.62;91.36
25080;BME280;13071;48.868;9.996;2023-01-19T00:12:46;95399.09;;;-2.49;91.38
25080;BME280;13071;48.868;9.996;2023-01-19T00:15:13;95405.47;;;-2.50;90.43
25080;BME280;13071;48.868;9.996;2023-01-19T00:17:39;95414.47;;;-2.51;90.91
25080;BME280;13071;48.868;9.996;2023-01-19T00:20:08;95407.06;;;-2.49;89.91
25080;BME280;13071;48.868;9.996;2023-01-19T00:22:34;95412.50;;;-2.70;90.98
25080;BME280;13071;48.868;9.996;2023-01-19T00:25:01;95412.50;;;-2.70;91.46
25080;BME280;13071;48.868;9.996;2023-01-19T00:27:29;95422.34;;;-2.75;91.96
25080;BME280;13071;48.868;9.996;2023-01-19T00:29:59;95417.34;;;-2.77;91.68
25080;BME280;13071;48.868;9.996;2023-01-19T00:32:26;95416.72;;;-2.69;92.03
25080;BME280;13071;48.868;9.996;2023-01-19T00:34:52;95419.41;;;-2.35;92.73
25080;BME280;13071;48.868;9.996;2023-01-19T00:37:19;95422.59;;;-2.38;92.99
25080;BME280;13071;48.868;9.996;2023-01-19T00:39:45;95424.22;;;-2.42;93.22
25080;BME280;13071;48.868;9.996;2023-01-19T00:42:12;95439.22;;;-2.27;94.04
25080;BME280;13071;48.868;9.996;2023-01-19T00:44:57;95426.25;;;-2.29;93.21
25080;BME280;13071;48.868;9.996;2023-01-19T00:47:24;95426.59;;;-2.40;93.55
25080;BME280;13071;48.868;9.996;2023-01-19T00:49:51;95431.63;;;-2.39;92.85
25080;BME280;13071;48.868;9.996;2023-01-19T00:52:17;95435.38;;;-2.45;93.06
25080;BME280;13071;48.868;9.996;2023-01-19T00:54:44;95432.81;;;-2.60;93.27
25080;BME280;13071;48.868;9.996;2023-01-19T00:57:10;95442.44;;;-2.69;93.23
25080;BME280;13071;48.868;9.996;2023-01-19T00:59:37;95437.88;;;-2.64;93.99
25080;BME280;13071;48.868;9.996;2023-01-19T01:02:05;95447.97;;;-2.71;93.45
25080;BME280;13071;48.868;9.996;2023-01-19T01:04:32;95445.03;;;-2.64;93.56
25080;BME280;13071;48.868;9.996;2023-01-19T01:06:58;95445.31;;;-2.66;92.99
25080;BME280;13071;48.868;9.996;2023-01-19T01:09:25;95449.06;;;-2.72;93.24
25080;BME280;13071;48.868;9.996;2023-01-19T01:11:52;95447.19;;;-2.71;93.51
25080;BME280;13071;48.868;9.996;2023-01-19T01:14:18;95452.25;;;-2.75;93.27
25080;BME280;13071;48.868;9.996;2023-01-19T01:16:45;95448.53;;;-2.74;93.46
25080;BME280;13071;48.868;9.996;2023-01-19T01:19:13;95448.81;;;-2.75;93.26
25080;BME280;13071;48.868;9.996;2023-01-19T01:21:40;95452.47;;;-2.66;92.99
25080;BME280;13071;48.868;9.996;2023-01-19T01:24:07;95443.19;;;-2.64;92.75
25080;BME280;13071;48.868;9.996;2023-01-19T01:26:34;95442.94;;;-2.67;92.83
25080;BME280;13071;48.868;9.996;2023-01-19T01:29:01;95451.47;;;-2.75;93.32
25080;BME280;13071;48.868;9.996;2023-01-19T01:31:28;95443.44;;;-2.65;93.78
25080;BME280;13071;48.868;9.996;2023-01-19T01:33:55;95443.09;;;-2.48;93.66
25080;BME280;13071;48.868;9.996;2023-01-19T01:36:23;95440.78;;;-2.60;93.59
25080;BME280;13071;48.868;9.996;2023-01-19T01:38:53;95442.59;;;-2.55;94.10
25080;BME280;13071;48.868;9.996;2023-01-19T01:41:20;95445.81;;;-2.58;93.93
25080;BME280;13071;48.868;9.996;2023-01-19T01:43:48;95445.09;;;-2.74;93.92
25080;BME280;13071;48.868;9.996;2023-01-19T01:46:16;95453.34;;;-2.81;94.23
25080;BME280;13071;48.868;9.996;2023-01-19T01:48:48;95438.66;;;-3.02;93.96
25080;BME280;13071;48.868;9.996;2023-01-19T01:51:20;95454.47;;;-2.87;92.91
25080;BME280;13071;48.868;9.996;2023-01-19T01:53:59;95455.06;;;-3.05;93.13
25080;BME280;13071;48.868;9.996;2023-01-19T01:56:32;95448.25;;;-3.16;92.81
25080;BME280;13071;48.868;9.996;2023-01-19T01:59:02;95464.44;;;-3.28;92.46
25080;BME280;13071;48.868;9.996;2023-01-19T02:01:30;95457.53;;;-3.24;92.16
25080;BME280;13071;48.868;9.996;2023-01-19T02:04:14;95459.19;;;-3.38;92.12
25080;BME280;13071;48.868;9.996;2023-01-19T02:06:41;95468.47;;;-3.40;92.77
25080;BME280;13071;48.868;9.996;2023-01-19T02:09:27;95463.69;;;-3.38;92.46
25080;BME280;13071;48.868;9.996;2023-01-19T02:12:12;95473.78;;;-3.51;92.42
25080;BME280;13071;48.868;9.996;2023-01-19T02:14:57;95469.28;;;-3.55;91.84
25080;BME280;13071;48.868;9.996;2023-01-19T02:17:23;95469.25;;;-3.50;92.50
25080;BME280;13071;48.868;9.996;2023-01-19T02:19:50;95458.44;;;-3.59;92.12
25080;BME280;13071;48.868;9.996;2023-01-19T02:22:22;95463.75;;;-3.64;92.27
25080;BME280;13071;48.868;9.996;2023-01-19T02:24:51;95463.69;;;-3.43;91.81
25080;BME280;13071;48.868;9.996;2023-01-19T02:27:18;95468.97;;;-3.43;92.28
25080;BME280;13071;48.868;9.996;2023-01-19T02:29:46;95477.47;;;-3.46;92.13
25080;BME280;13071;48.868;9.996;2023-01-19T02:32:12;95478.22;;;-3.36;92.23
25080;BME280;13071;48.868;9.996;2023-01-19T02:34:39;95480.59;;;-3.39;92.49
25080;BME280;13071;48.868;9.996;2023-01-19T02:37:08;95477.13;;;-3.25;92.63
25080;BME280;13071;48.868;9.996;2023-01-19T02:39:38;95484.78;;;-3.18;93.38
25080;BME280;13071;48.868;9.996;2023-01-19T02:42:11;95485.06;;;-3.25;93.82
25080;BME280;13071;48.868;9.996;2023-01-19T02:44:39;95479.38;;;-2.93;92.91
25080;BME280;13071;48.868;9.996;2023-01-19T02:47:09;95484.00;;;-3.24;92.69
25080;BME280;13071;48.868;9.996;2023-01-19T02:49:35;95484.38;;;-3.51;92.96
25080;BME280;13071;48.868;9.996;2023-01-19T02:52:02;95484.88;;;-3.49;92.86
25080;BME280;13071;48.868;9.996;2023-01-19T02:54:41;95490.44;;;-3.55;92.34
25080;BME280;13071;48.868;9.996;2023-01-19T02:57:21;95485.69;;;-3.63;92.37
25080;BME280;13071;48.868;9.996;2023-01-19T02:59:57;95490.47;;;-3.60;92.87
25080;BME280;13071;48.868;9.996;2023-01-19T03:02:34;95491.78;;;-3.63;93.12
25080;BME280;13071;48.868;9.996;2023-01-19T03:05:20;95482.78;;;-3.57;92.58
25080;BME280;13071;48.868;9.996;2023-01-19T03:07:56;95488.34;;;-3.68;92.22
25080;BME280;13071;48.868;9.996;2023-01-19T03:10:29;95486.25;;;-3.66;91.75
25080;BME280;13071;48.868;9.996;2023-01-19T03:13:02;95488.59;;;-3.65;91.73
25080;BME280;13071;48.868;9.996;2023-01-19T03:15:34;95489.06;;;-3.32;91.48
25080;BME280;13071;48.868;9.996;2023-01-19T03:18:07;95492.69;;;-3.13;90.86
25080;BME280;13071;48.868;9.996;2023-01-19T03:20:35;95491.16;;;-3.34;91.15
25080;BME280;13071;48.868;9.996;2023-01-19T03:23:06;95499.19;;;-3.65;91.60
25080;BME280;13071;48.868;9.996;2023-01-19T03:25:36;95498.44;;;-4.01;92.98
25080;BME280;13071;48.868;9.996;2023-01-19T03:28:06;95506.09;;;-3.89;93.36
25080;BME280;13071;48.868;9.996;2023-01-19T03:30:34;95509.00;;;-3.80;92.26
25080;BME280;13071;48.868;9.996;2023-01-19T03:33:08;95509.75;;;-3.70;92.27
25080;BME280;13071;48.868;9.996;2023-01-19T03:35:39;95507.91;;;-3.64;92.88
25080;BME280;13071;48.868;9.996;2023-01-19T03:38:12;95508.94;;;-3.50;92.27
25080;BME280;13071;48.868;9.996;2023-01-19T03:40:40;95519.78;;;-3.41;92.64
25080;BME280;13071;48.868;9.996;2023-01-19T03:43:09;95504.91;;;-3.22;91.21
25080;BME280;13071;48.868;9.996;2023-01-19T03:45:37;95515.28;;;-3.36;91.92
25080;BME280;13071;48.868;9.996;2023-01-19T03:48:05;95500.16;;;-3.35;91.91
25080;BME280;13071;48.868;9.996;2023-01-19T03:50:31;95507.91;;;-3.59;92.18
25080;BME280;13071;48.868;9.996;2023-01-19T03:52:59;95508.41;;;-3.47;92.96
25080;BME280;13071;48.868;9.996;2023-01-19T03:55:27;95506.25;;;-3.35;91.85
25080;BME280;13071;48.868;9.996;2023-01-19T03:57:53;95514.63;;;-3.08;91.84
25080;BME280;13071;48.868;9.996;2023-01-19T04:00:21;95514.91;;;-3.14;91.71
25080;BME280;13071;48.868;9.996;2023-01-19T04:02:48;95505.41;;;-3.20;91.42
25080;BME280;13071;48.868;9.996;2023-01-19T04:05:15;95505.91;;;-3.13;91.12
25080;BME280;13071;48.868;9.996;2023-01-19T04:07:41;95518.66;;;-3.30;91.84
25080;BME280;13071;48.868;9.996;2023-01-19T04:10:09;95509.66;;;-3.29;92.11
25080;BME280;13071;48.868;9.996;2023-01-19T04:12:37;95511.75;;;-3.11;91.88
25080;BME280;13071;48.868;9.996;2023-01-19T04:15:04;95515.47;;;-3.17;92.39
25080;BME280;13071;48.868;9.996;2023-01-19T04:17:32;95515.66;;;-2.98;92.00
25080;BME280;13071;48.868;9.996;2023-01-19T04:19:59;95516.22;;;-3.07;91.93
25080;BME280;13071;48.868;9.996;2023-01-19T04:22:25;95517.78;;;-3.06;92.30
25080;BME280;13071;48.868;9.996;2023-01-19T04:24:52;95518.31;;;-2.98;92.36
25080;BME280;13071;48.868;9.996;2023-01-19T04:27:19;95519.44;;;-3.20;91.83
25080;BME280;13071;48.868;9.996;2023-01-19T04:29:46;95518.13;;;-3.17;92.22
25080;BME280;13071;48.868;9.996;2023-01-19T04:32:13;95522.03;;;-3.10;92.07
25080;BME280;13071;48.868;9.996;2023-01-19T04:34:41;95513.09;;;-3.24;92.38
25080;BME280;13071;48.868;9.996;2023-01-19T04:37:08;95515.19;;;-3.16;92.67
25080;BME280;13071;48.868;9.996;2023-01-19T04:39:34;95514.69;;;-3.28;92.82
25080;BME280;13071;48.868;9.996;2023-01-19T04:42:01;95512.34;;;-3.34;93.20
25080;BME280;13071;48.868;9.996;2023-01-19T04:44:28;95507.06;;;-3.44;93.46
25080;BME280;13071;48.868;9.996;2023-01-19T04:46:54;95511.81;;;-3.36;93.80
25080;BME280;13071;48.868;9.996;2023-01-19T04:49:21;95513.69;;;-3.42;94.08
25080;BME280;13071;48.868;9.996;2023-01-19T04:51:51;95515.28;;;-3.36;93.72
25080;BME280;13071;48.868;9.996;2023-01-19T04:54:18;95501.53;;;-3.48;93.93
25080;BME280;13071;48.868;9.996;2023-01-19T04:56:44;95512.66;;;-3.46;93.83
25080;BME280;13071;48.868;9.996;2023-01-19T04:59:11;95518.72;;;-3.40;92.99
25080;BME280;13071;48.868;9.996;2023-01-19T05:01:37;95519.25;;;-3.43;92.23
25080;BME280;13071;48.868;9.996;2023-01-19T05:04:04;95518.44;;;-3.39;92.17
25080;BME280;13071;48.868;9.996;2023-01-19T05:06:32;95526.66;;;-3.45;91.91
25080;BME280;13071;48.868;9.996;2023-01-19T05:09:00;95530.06;;;-3.45;92.68
25080;BME280;13071;48.868;9.996;2023-01-19T05:11:26;95524.81;;;-3.55;92.57
25080;BME280;13071;48.868;9.996;2023-01-19T05:13:53;95541.75;;;-3.46;92.82
25080;BME280;13071;48.868;9.996;2023-01-19T05:16:19;95538.28;;;-3.41;91.91
25080;BME280;13071;48.868;9.996;2023-01-19T05:18:46;95533.00;;;-3.41;92.02
25080;BME280;13071;48.868;9.996;2023-01-19T05:21:12;95541.72;;;-3.36;92.03
25080;BME280;13071;48.868;9.996;2023-01-19T05:23:39;95531.13;;;-3.31;92.20
25080;BME280;13071;48.868;9.996;2023-01-19T05:26:07;95531.03;;;-3.11;91.42
25080;BME280;13071;48.868;9.996;2023-01-19T05:28:33;95543.00;;;-3.23;91.91
25080;BME280;13071;48.868;9.996;2023-01-19T05:31:00;95544.84;;;-3.19;91.83
25080;BME280;13071;48.868;9.996;2023-01-19T05:33:27;95545.88;;;-3.15;91.57
25080;BME280;13071;48.868;9.996;2023-01-19T05:35:54;95553.84;;;-3.25;92.09
25080;BME280;13071;48.868;9.996;2023-01-19T05:38:21;95552.53;;;-3.27;92.74
25080;BME280;13071;48.868;9.996;2023-01-19T05:40:47;95555.41;;;-3.14;93.06
25080;BME280;13071;48.868;9.996;2023-01-19T05:43:15;95553.28;;;-3.07;92.70
25080;BME280;13071;48.868;9.996;2023-01-19T05:45:42;95559.59;;;-2.97;92.94
25080;BME280;13071;48.868;9.996;2023-01-19T05:48:09;95559.03;;;-2.94;92.90
25080;BME280;13071;48.868;9.996;2023-01-19T05:50:36;95562.47;;;-2.89;92.92
25080;BME280;13071;48.868;9.996;2023-01-19T05:53:02;95564.56;;;-2.86;92.52
25080;BME280;13071;48.868;9.996;2023-01-19T05:55:29;95552.69;;;-2.88;92.39
25080;BME280;13071;48.868;9.996;2023-01-19T05:57:56;95556.75;;;-3.16;93.23
25080;BME280;13071;48.868;9.996;2023-01-19T06:00:24;95554.78;;;-2.90;92.04
25080;BME280;13071;48.868;9.996;2023-01-19T06:02:52;95562.72;;;-2.85;91.43
25080;BME280;13071;48.868;9.996;2023-01-19T06:05:18;95566.69;;;-2.83;91.82
25080;BME280;13071;48.868;9.996;2023-01-19T06:07:45;95563.00;;;-2.82;92.03
25080;BME280;13071;48.868;9.996;2023-01-19T06:10:11;95569.56;;;-2.74;91.09
25080;BME280;13071;48.868;9.996;2023-01-19T06:12:38;95563.78;;;-2.81;91.31
25080;BME280;13071;48.868;9.996;2023-01-19T06:15:06;95566.13;;;-2.80;91.34
25080;BME280;13071;48.868;9.996;2023-01-19T06:17:33;95565.91;;;-2.88;91.30
25080;BME280;13071;48.868;9.996;2023-01-19T06:20:01;95563.03;;;-2.92;90.92
25080;BME280;13071;48.868;9.996;2023-01-19T06:22:27;95569.63;;;-2.94;90.88
25080;BME280;13071;48.868;9.996;2023-01-19T06:24:54;95568.06;;;-3.00;90.35
25080;BME280;13071;48.868;9.996;2023-01-19T06:27:20;95575.75;;;-3.04;90.00
25080;BME280;13071;48.868;9.996;2023-01-19T06:29:47;95568.38;;;-3.12;89.75
25080;BME280;13071;48.868;9.996;2023-01-19T06:32:13;95577.13;;;-3.17;89.17
25080;BME280;13071;48.868;9.996;2023-01-19T06:34:41;95578.75;;;-3.26;88.44
25080;BME280;13071;48.868;9.996;2023-01-19T06:37:08;95584.31;;;-3.42;88.36
25080;BME280;13071;48.868;9.996;2023-01-19T06:39:35;95573.72;;;-3.42;89.15
25080;BME280;13071;48.868;9.996;2023-01-19T06:42:05;95582.72;;;-3.49;88.48
25080;BME280;13071;48.868;9.996;2023-01-19T06:44:32;95592.81;;;-3.61;88.20
25080;BME280;13071;48.868;9.996;2023-01-19T06:46:59;95585.13;;;-3.62;88.19
25080;BME280;13071;48.868;9.996;2023-01-19T06:49:25;95581.16;;;-3.65;88.24
25080;BME280;13071;48.868;9.996;2023-01-19T06:51:53;95586.72;;;-3.66;87.93
25080;BME280;13071;48.868;9.996;2023-01-19T06:54:20;95581.16;;;-3.60;87.82
25080;BME280;13071;48.868;9.996;2023-01-19T06:56:46;95591.72;;;-3.55;87.88
25080;BME280;13071;48.868;9.996;2023-01-19T06:59:13;95597.00;;;-3.50;87.39
25080;BME280;13071;48.868;9.996;2023-01-19T07:01:39;95597.00;;;-3.60;86.73
25080;BME280;13071;48.868;9.996;2023-01-19T07:04:06;95600.75;;;-3.56;87.22
25080;BME280;13071;48.868;9.996;2023-01-19T07:06:32;95598.34;;;-3.47;88.00
25080;BME280;13071;48.868;9.996;2023-01-19T07:09:00;95600.97;;;-3.42;89.06
25080;BME280;13071;48.868;9.996;2023-01-19T07:11:31;95604.41;;;-3.31;89.31
25080;BME280;13071;48.868;9.996;2023-01-19T07:13:58;95601.75;;;-3.31;89.52
25080;BME280;13071;48.868;9.996;2023-01-19T07:16:24;95606.28;;;-3.37;88.97
25080;BME280;13071;48.868;9.996;2023-01-19T07:18:51;95601.22;;;-3.38;88.34
25080;BME280;13071;48.868;9.996;2023-01-19T07:21:18;95608.94;;;-3.52;87.78
25080;BME280;13071;48.868;9.996;2023-01-19T07:23:47;95609.97;;;-3.58;87.40
25080;BME280;13071;48.868;9.996;2023-01-19T07:26:14;95623.75;;;-3.61;87.88
25080;BME280;13071;48.868;9.996;2023-01-19T07:28:44;95618.16;;;-3.70;87.75
25080;BME280;13071;48.868;9.996;2023-01-19T07:31:10;95634.81;;;-3.69;87.91
25080;BME280;13071;48.868;9.996;2023-01-19T07:33:37;95625.06;;;-3.69;88.58
25080;BME280;13071;48.868;9.996;2023-01-19T07:36:04;95627.44;;;-3.67;88.07
25080;BME280;13071;48.868;9.996;2023-01-19T07:38:30;95626.38;;;-3.66;87.70
25080;BME280;13071;48.868;9.996;2023-01-19T07:41:00;95618.72;;;-3.68;87.01
25080;BME280;13071;48.868;9.996;2023-01-19T07:43:29;95626.63;;;-3.73;86.92
25080;BME280;13071;48.868;9.996;2023-01-19T07:45:56;95631.41;;;-3.80;86.82
25080;BME280;13071;48.868;9.996;2023-01-19T07:48:22;95628.47;;;-3.78;87.34
25080;BME280;13071;48.868;9.996;2023-01-19T07:50:49;95627.44;;;-3.67;87.29
25080;BME280;13071;48.868;9.996;2023-01-19T07:53:16;95640.91;;;-3.59;87.52
25080;BME280;13071;48.868;9.996;2023-01-19T07:55:43;95641.16;;;-3.45;87.56
25080;BME280;13071;48.868;9.996;2023-01-19T07:58:09;95644.34;;;-3.38;87.88
25080;BME280;13071;48.868;9.996;2023-01-19T08:00:38;95651.25;;;-3.37;89.46
25080;BME280;13071;48.868;9.996;2023-01-19T08:03:05;95654.13;;;-3.18;89.13
25080;BME280;13071;48.868;9.996;2023-01-19T08:05:33;95658.34;;;-3.02;88.61
25080;BME280;13071;48.868;9.996;2023-01-19T08:08:00;95658.88;;;-3.15;89.09
25080;BME280;13071;48.868;9.996;2023-01-19T08:10:27;95662.06;;;-3.08;90.08
25080;BME280;13071;48.868;9.996;2023-01-19T08:12:55;95662.00;;;-2.78;88.68
25080;BME280;13071;48.868;9.996;2023-01-19T08:15:22;95655.94;;;-2.83;87.75
25080;BME280;13071;48.868;9.996;2023-01-19T08:17:58;95654.56;;;-2.76;88.41
25080;BME280;13071;48.868;9.996;2023-01-19T08:20:25;95660.38;;;-2.64;88.96
25080;BME280;13071;48.868;9.996;2023-01-19T08:22:52;95659.78;;;-2.50;88.99
25080;BME280;13071;48.868;9.996;2023-01-19T08:25:24;95659.88;;;-2.11;86.96
25080;BME280;13071;48.868;9.996;2023-01-19T08:27:53;95666.00;;;-2.16;86.42
25080;BME280;13071;48.868;9.996;2023-01-19T08:30:20;95667.81;;;-2.11;86.36
25080;BME280;13071;48.868;9.996;2023-01-19T08:32:47;95673.09;;;-2.01;85.07
25080;BME280;13071;48.868;9.996;2023-01-19T08:35:15;95650.69;;;-2.29;85.39
25080;BME280;13071;48.868;9.996;2023-01-19T08:37:41;95662.56;;;-2.17;85.71
25080;BME280;13071;48.868;9.996;2023-01-19T08:40:09;95652.91;;;-2.51;86.56
25080;BME280;13071;48.868;9.996;2023-01-19T08:42:36;95664.28;;;-2.51;86.56
25080;BME280;13071;48.868;9.996;2023-01-19T08:45:03;95662.06;;;-2.19;84.59
25080;BME280;13071;48.868;9.996;2023-01-19T08:47:29;95657.06;;;-2.35;84.60
25080;BME280;13071;48.868;9.996;2023-01-19T08:49:56;95659.00;;;-2.56;85.55
25080;BME280;13071;48.868;9.996;2023-01-19T08:52:24;95659.31;;;-2.63;86.89
25080;BME280;13071;48.868;9.996;2023-01-19T08:54:50;95654.19;;;-2.39;86.53
25080;BME280;13071;48.868;9.996;2023-01-19T08:57:17;95654.94;;;-2.28;86.41
25080;BME280;13071;48.868;9.996;2023-01-19T08:59:44;95657.91;;;-2.40;85.59
25080;BME280;13071;48.868;9.996;2023-01-19T09:02:11;95660.50;;;-2.30;85.09
25080;BME280;13071;48.868;9.996;2023-01-19T09:04:38;95653.38;;;-2.34;84.98
25080;BME280;13071;48.868;9.996;2023-01-19T09:07:04;95657.06;;;-2.35;85.37
25080;BME280;13071;48.868;9.996;2023-01-19T09:09:32;95653.66;;;-2.46;85.65
25080;BME280;13071;48.868;9.996;2023-01-19T09:12:02;95657.63;;;-2.38;86.32
25080;BME280;13071;48.868;9.996;2023-01-19T09:14:28;95657.13;;;-2.45;86.38
25080;BME280;13071;48.868;9.996;2023-01-19T09:16:55;95649.78;;;-2.69;87.83
25080;BME280;13071;48.868;9.996;2023-01-19T09:19:23;95660.03;;;-2.42;86.94
25080;BME280;13071;48.868;9.996;2023-01-19T09:21:52;95662.63;;;-2.32;85.97
25080;BME280;13071;48.868;9.996;2023-01-19T09:24:19;95667.91;;;-2.27;86.76
25080;BME280;13071;48.868;9.996;2023-01-19T09:26:47;95671.56;;;-2.12;85.14
25080;BME280;13071;48.868;9.996;2023-01-19T09:29:13;95665.94;;;-2.06;86.00
25080;BME280;13071;48.868;9.996;2023-01-19T09:31:40;95661.03;;;-1.79;85.67
25080;BME280;13071;48.868;9.996;2023-01-19T09:34:08;95666.28;;;-1.68;84.70
25080;BME280;13071;48.868;9.996;2023-01-19T09:36:35;95663.53;;;-1.53;84.29
25080;BME280;13071;48.868;9.996;2023-01-19T09:39:03;95667.16;;;-1.44;83.52
25080;BME280;13071;48.868;9.996;2023-01-19T09:41:32;95674.75;;;-1.33;83.37
25080;BME280;13071;48.868;9.996;2023-01-19T09:44:02;95674.72;;;-1.27;82.32
25080;BME280;13071;48.868;9.996;2023-01-19T09:46:34;95678.91;;;-1.21;81.28
25080;BME280;13071;48.868;9.996;2023-01-19T09:49:05;95676.97;;;-1.11;81.33
25080;BME280;13071;48.868;9.996;2023-01-19T09:51:38;95673.91;;;-0.94;80.96
25080;BME280;13071;48.868;9.996;2023-01-19T09:54:10;95680.19;;;-0.85;81.32
25080;BME280;13071;48.868;9.996;2023-01-19T09:56:39;95679.69;;;-0.87;81.12
25080;BME280;13071;48.868;9.996;2023-01-19T09:59:18;95685.84;;;-0.68;80.17
25080;BME280;13071;48.868;9.996;2023-01-19T10:01:58;95684.94;;;-0.82;79.76
25080;BME280;13071;48.868;9.996;2023-01-19T10:04:32;95688.06;;;-0.75;80.25
25080;BME280;13071;48.868;9.996;2023-01-19T10:07:09;95690.06;;;-0.62;79.50
25080;BME280;13071;48.868;9.996;2023-01-19T10:09:46;95686.22;;;-0.51;79.57
25080;BME280;13071;48.868;9.996;2023-01-19T10:12:26;95679.31;;;-0.52;79.54
25080;BME280;13071;48.868;9.996;2023-01-19T10:15:01;95684.56;;;-0.70;79.54
25080;BME280;13071;48.868;9.996;2023-01-19T10:17:40;95685.06;;;-0.68;79.55
25080;BME280;13071;48.868;9.996;2023-01-19T10:20:15;95686.16;;;-0.46;79.09
25080;BME280;13071;48.868;9.996;2023-01-19T10:22:46;95691.97;;;-0.44;79.31
25080;BME280;13071;48.868;9.996;2023-01-19T10:25:17;95696.56;;;-0.49;78.66
25080;BME280;13071;48.868;9.996;2023-01-19T10:27:45;95691.13;;;-0.39;78.36
25080;BME280;13071;48.868;9.996;2023-01-19T10:30:18;95686.97;;;-0.21;77.97
25080;BME280;13071;48.868;9.996;2023-01-19T10:32:47;95681.84;;;-0.18;77.99
25080;BME280;13071;48.868;9.996;2023-01-19T10:35:16;95682.91;;;-0.19;77.40
25080;BME280;13071;48.868;9.996;2023-01-19T10:37:48;95678.84;;;-0.11;76.93
25080;BME280;13071;48.868;9.996;2023-01-19T10:40:21;95677.13;;;-0.02;76.71
25080;BME280;13071;48.868;9.996;2023-01-19T10:42:49;95681.00;;;0.06;76.71
25080;BME280;13071;48.868;9.996;2023-01-19T10:45:19;95676.34;;;0.16;75.75
25080;BME280;13071;48.868;9.996;2023-01-19T10:47:47;95675.16;;;0.09;76.35
25080;BME280;13071;48.868;9.996;2023-01-19T10:50:26;95670.53;;;0.52;75.91
25080;BME280;13071;48.868;9.996;2023-01-19T10:52:54;95669.69;;;0.37;74.60
25080;BME280;13071;48.868;9.996;2023-01-19T10:55:27;95672.13;;;0.53;74.39
25080;BME280;13071;48.868;9.996;2023-01-19T10:57:55;95666.66;;;0.44;74.18
25080;BME280;13071;48.868;9.996;2023-01-19T11:00:35;95675.28;;;0.55;74.30
25080;BME280;13071;48.868;9.996;2023-01-19T11:03:03;95676.50;;;0.25;74.78
25080;BME280;13071;48.868;9.996;2023-01-19T11:05:31;95677.31;;;0.44;74.19
25080;BME280;13071;48.868;9.996;2023-01-19T11:07:58;95673.50;;;0.31;74.67
25080;BME280;13071;48.868;9.996;2023-01-19T11:10:27;95666.22;;;0.56;74.31
25080;BME280;13071;48.868;9.996;2023-01-19T11:12:59;95667.78;;;0.75;73.62
25080;BME280;13071;48.868;9.996;2023-01-19T11:15:31;95664.13;;;0.71;72.51
25080;BME280;13071;48.868;9.996;2023-01-19T11:18:01;95661.25;;;0.68;72.67
25080;BME280;13071;48.868;9.996;2023-01-19T11:20:30;95664.06;;;0.58;73.06
25080;BME280;13071;48.868;9.996;2023-01-19T11:23:04;95662.69;;;0.60;73.39
25080;BME280;13071;48.868;9.996;2023-01-19T11:25:33;95661.59;;;0.61;73.23
25080;BME280;13071;48.868;9.996;2023-01-19T11:28:01;95662.16;;;0.77;73.44
25080;BME280;13071;48.868;9.996;2023-01-19T11:30:29;95670.16;;;0.77;73.19
25080;BME280;13071;48.868;9.996;2023-01-19T11:32:56;95668.13;;;0.88;72.90
25080;BME280;13071;48.868;9.996;2023-01-19T11:35:35;95664.47;;;0.83;73.57
25080;BME280;13071;48.868;9.996;2023-01-19T11:38:14;95666.69;;;1.09;73.25
25080;BME280;13071;48.868;9.996;2023-01-19T11:40:49;95658.22;;;1.20;73.27
25080;BME280;13071;48.868;9.996;2023-01-19T11:43:16;95661.31;;;1.27;72.88
25080;BME280;13071;48.868;9.996;2023-01-19T11:45:43;95652.91;;;1.20;71.89
25080;BME280;13071;48.868;9.996;2023-01-19T11:48:17;95655.81;;;1.38;72.54
25080;BME280;13071;48.868;9.996;2023-01-19T11:50:48;95648.28;;;1.40;72.19
25080;BME280;13071;48.868;9.996;2023-01-19T11:53:19;95646.41;;;1.54;72.30
25080;BME280;13071;48.868;9.996;2023-01-19T11:55:53;95643.34;;;1.60;71.34
25080;BME280;13071;48.868;9.996;2023-01-19T11:58:21;95642.56;;;1.46;71.18
25080;BME280;13071;48.868;9.996;2023-01-19T12:00:51;95644.72;;;1.30;72.20
25080;BME280;13071;48.868;9.996;2023-01-19T12:03:23;95635.44;;;1.28;71.28
25080;BME280;13071;48.868;9.996;2023-01-19T12:05:57;95640.06;;;1.22;71.38
25080;BME280;13071;48.868;9.996;2023-01-19T12:08:27;95639.50;;;1.39;71.80
25080;BME280;13071;48.868;9.996;2023-01-19T12:10:56;95635.56;;;1.37;71.91
25080;BME280;13071;48.868;9.996;2023-01-19T12:13:26;95658.28;;;1.61;71.68
25080;BME280;13071;48.868;9.996;2023-01-19T12:15:56;95652.25;;;1.56;72.18
25080;BME280;13071;48.868;9.996;2023-01-19T12:18:27;95654.22;;;1.50;71.83
25080;BME280;13071;48.868;9.996;2023-01-19T12:20:56;95652.53;;;1.54;72.49
25080;BME280;13071;48.868;9.996;2023-01-19T12:23:35;95653.03;;;1.43;71.78
25080;BME280;13071;48.868;9.996;2023-01-19T12:26:22;95644.84;;;1.53;73.06
25080;BME280;13071;48.868;9.996;2023-01-19T12:28:53;95647.53;;;1.53;73.12
25080;BME280;13071;48.868;9.996;2023-01-19T12:31:23;95647.91;;;1.46;72.48
25080;BME280;13071;48.868;9.996;2023-01-19T12:33:50;95647.69;;;1.70;72.76
25080;BME280;13071;48.868;9.996;2023-01-19T12:36:37;95646.81;;;1.61;71.46
25080;BME280;13071;48.868;9.996;2023-01-19T12:39:08;95640.88;;;1.50;70.47
25080;BME280;13071;48.868;9.996;2023-01-19T12:41:39;95639.19;;;1.54;71.53
25080;BME280;13071;48.868;9.996;2023-01-19T12:44:21;95642.47;;;1.38;71.82
25080;BME280;13071;48.868;9.996;2023-01-19T12:46:52;95639.28;;;1.63;71.90
25080;BME280;13071;48.868;9.996;2023-01-19T12:49:23;95642.75;;;1.63;71.41
25080;BME280;13071;48.868;9.996;2023-01-19T12:51:54;95638.53;;;1.62;71.62
25080;BME280;13071;48.868;9.996;2023-01-19T12:54:36;95642.28;;;1.61;71.83
25080;BME280;13071;48.868;9.996;2023-01-19T12:57:07;95635.75;;;1.67;70.53
25080;BME280;13071;48.868;9.996;2023-01-19T12:59:35;95634.38;;;1.70;71.85
25080;BME280;13071;48.868;9.996;2023-01-19T13:05:18;95643.44;;;1.69;72.06
25080;BME280;13071;48.868;9.996;2023-01-19T13:08:18;95638.81;;;1.74;71.91
25080;BME280;13071;48.868;9.996;2023-01-19T13:10:53;95638.22;;;1.91;72.13
25080;BME280;13071;48.868;9.996;2023-01-19T13:13:21;95633.19;;;1.76;72.23
25080;BME280;13071;48.868;9.996;2023-01-19T13:15:48;95629.72;;;1.62;72.61